Time;durP1;ratioP1;P1;durP2;ratioP2;P2;SDS_P1;SDS_P2;PMS_P1;PMS_P2;Temp;Humidity;BMP_temperature;BMP_pressure;BME280_temperature;BME280_humidity;BME280_pressure;Samples;Min_cycle;Max_cycle;Signal;HPM_P1;HPM_P2
2022/03/11 00:00:40;;;;;;;20.40;12.90;;;;;;;-4.18;56.41;95681.82;1526217;92;21690;-54
2022/03/11 00:03:13;;;;;;;18.60;11.78;;;;;;;-4.15;56.13;95684.38;1525209;92;21122;-51
2022/03/11 00:05:40;;;;;;;13.05;10.78;;;;;;;-4.14;56.05;95677.89;1532251;92;21106;-53
2022/03/11 00:08:07;;;;;;;18.10;10.58;;;;;;;-4.09;56.21;95669.65;1563000;89;21109;-53
2022/03/11 00:10:34;;;;;;;15.50;11.33;;;;;;;-4.11;55.91;95673.20;1540407;90;21183;-53
2022/03/11 00:13:02;;;;;;;15.93;12.13;;;;;;;-4.18;56.09;95669.73;1531282;91;21134;-53
2022/03/11 00:15:30;;;;;;;15.80;11.70;;;;;;;-4.14;55.79;95665.80;1552649;90;21080;-51
2022/03/11 00:17:58;;;;;;;13.85;10.50;;;;;;;-4.08;55.77;95667.19;1568661;89;21061;-53
2022/03/11 00:20:25;;;;;;;15.18;10.35;;;;;;;-4.01;55.30;95660.70;1560628;90;21887;-52
2022/03/11 00:22:54;;;;;;;14.30;11.53;;;;;;;-4.03;54.08;95666.96;1549817;90;21128;-54
2022/03/11 00:25:21;;;;;;;17.52;11.10;;;;;;;-4.06;54.64;95667.06;1550581;90;21027;-57
2022/03/11 00:27:48;;;;;;;15.40;11.63;;;;;;;-4.12;55.01;95664.91;1553046;90;21012;-57
2022/03/11 00:30:15;;;;;;;22.87;14.05;;;;;;;-4.13;54.92;95662.00;1547546;90;21062;-57
2022/03/11 00:32:43;;;;;;;19.37;13.45;;;;;;;-4.18;54.55;95660.88;1548266;89;21907;-63
2022/03/11 00:35:11;;;;;;;22.67;13.40;;;;;;;-4.20;54.63;95671.17;1543435;89;21115;-55
2022/03/11 00:37:40;;;;;;;19.75;13.10;;;;;;;-4.17;54.23;95670.50;1553340;90;21613;-53
2022/03/11 00:40:08;;;;;;;15.50;11.70;;;;;;;-4.16;54.16;95672.87;1555958;90;22051;-56
2022/03/11 00:42:35;;;;;;;13.10;10.05;;;;;;;-4.30;53.61;95670.23;1543838;90;21114;-58
2022/03/11 00:45:04;;;;;;;15.48;11.12;;;;;;;-4.42;53.97;95667.52;1545174;90;21162;-56
2022/03/11 00:47:32;;;;;;;12.98;10.72;;;;;;;-4.57;54.34;95665.44;1548286;90;22349;-59
2022/03/11 00:50:00;;;;;;;16.93;11.33;;;;;;;-4.61;54.73;95671.24;1551872;90;21500;-56
2022/03/11 00:52:28;;;;;;;46.35;20.77;;;;;;;-4.54;54.57;95666.13;1535065;91;21100;-55
2022/03/11 00:54:55;;;;;;;16.25;12.50;;;;;;;-4.48;54.35;95665.59;1545911;91;21712;-56
2022/03/11 00:57:22;;;;;;;17.25;11.30;;;;;;;-4.39;54.20;95670.31;1533982;91;22526;-57
2022/03/11 00:59:49;;;;;;;15.90;11.15;;;;;;;-4.40;54.48;95661.26;1513738;92;21754;-53
2022/03/11 01:02:17;;;;;;;16.07;11.85;;;;;;;-4.35;54.85;95659.70;1544008;90;21059;-54
2022/03/11 01:04:44;;;;;;;18.30;12.70;;;;;;;-4.42;54.57;95662.92;1540099;90;21056;-55
2022/03/11 01:07:12;;;;;;;13.55;11.18;;;;;;;-4.55;54.33;95659.18;1538504;90;21081;-57
2022/03/11 01:09:39;;;;;;;18.90;11.88;;;;;;;-4.64;54.31;95650.44;1546858;89;21381;-58
2022/03/11 01:12:07;;;;;;;19.77;12.00;;;;;;;-4.73;54.25;95657.22;1538677;89;21147;-55
2022/03/11 01:14:36;;;;;;;15.60;11.43;;;;;;;-4.78;54.30;95655.28;1538525;90;21633;-53
2022/03/11 01:17:03;;;;;;;16.17;11.63;;;;;;;-4.91;54.41;95656.33;1544382;90;21067;-56
2022/03/11 01:19:32;;;;;;;18.40;12.33;;;;;;;-5.01;54.15;95651.37;1544237;90;21068;-57
2022/03/11 01:22:01;;;;;;;19.70;13.10;;;;;;;-5.19;54.47;95649.92;1547529;90;21127;-56
2022/03/11 01:24:29;;;;;;;77.62;43.40;;;;;;;-5.39;54.69;95649.87;1543587;90;21816;-56
2022/03/11 01:26:56;;;;;;;20.60;14.78;;;;;;;-5.48;54.92;95643.23;1544334;89;21062;-55
2022/03/11 01:29:24;;;;;;;19.45;11.55;;;;;;;-5.49;54.74;95634.95;1545858;90;21070;-53
2022/03/11 01:31:51;;;;;;;20.77;13.00;;;;;;;-5.58;55.11;95644.92;1537744;90;21694;-57
2022/03/11 01:34:20;;;;;;;16.12;12.05;;;;;;;-5.67;55.15;95640.72;1529581;90;21248;-57
2022/03/11 01:36:47;;;;;;;20.77;13.35;;;;;;;-5.77;55.25;95642.44;1534948;90;21142;-58
2022/03/11 01:39:16;;;;;;;21.40;13.60;;;;;;;-5.90;55.40;95649.63;1538709;90;21757;-54
2022/03/11 01:41:43;;;;;;;15.40;11.55;;;;;;;-6.03;55.46;95650.61;1547173;90;21151;-57
2022/03/11 01:44:11;;;;;;;16.85;11.93;;;;;;;-6.18;55.89;95655.14;1559180;90;21104;-58
2022/03/11 01:46:38;;;;;;;14.95;11.95;;;;;;;-6.28;56.10;95656.03;1543890;90;21340;-56
2022/03/11 01:49:07;;;;;;;18.07;12.33;;;;;;;-6.37;56.13;95649.37;1543136;91;21664;-57
2022/03/11 01:51:38;;;;;;;18.37;11.50;;;;;;;-6.41;56.18;95645.77;1541677;90;21215;-55
2022/03/11 01:54:05;;;;;;;17.52;11.60;;;;;;;-6.44;56.37;95647.74;1514255;93;21062;-56
2022/03/11 01:56:34;;;;;;;17.35;10.95;;;;;;;-6.59;56.78;95652.25;1492973;93;21514;-55
2022/03/11 01:59:01;;;;;;;17.73;13.05;;;;;;;-6.69;57.40;95652.56;1500297;92;21637;-53
2022/03/11 02:01:28;;;;;;;19.73;15.38;;;;;;;-6.78;57.84;95653.67;1499768;93;21081;-56
2022/03/11 02:03:57;;;;;;;21.60;14.65;;;;;;;-6.88;57.97;95649.44;1497362;92;21110;-56
2022/03/11 02:06:26;;;;;;;34.80;20.85;;;;;;;-6.99;57.95;95646.63;1496777;92;21174;-58
2022/03/11 02:08:55;;;;;;;25.85;16.87;;;;;;;-6.99;58.43;95654.64;1521084;92;21198;-61
2022/03/11 02:11:22;;;;;;;122.25;41.45;;;;;;;-7.00;58.40;95655.75;1522192;92;21518;-56
2022/03/11 02:13:59;;;;;;;222.93;74.40;;;;;;;-7.02;58.39;95655.25;1503422;92;21592;-56
2022/03/11 02:16:30;;;;;;;160.93;61.15;;;;;;;-7.03;58.72;95651.81;1506807;93;21637;-55
2022/03/11 02:18:58;;;;;;;76.55;35.58;;;;;;;-6.97;58.63;95653.78;1497545;92;21146;-54
2022/03/11 02:21:28;;;;;;;50.83;28.85;;;;;;;-6.97;58.46;95662.03;1523620;92;21579;-54
2022/03/11 02:23:57;;;;;;;43.40;24.52;;;;;;;-7.02;58.42;95660.06;1501819;93;21276;-57
2022/03/11 02:26:26;;;;;;;41.48;24.30;;;;;;;-7.06;58.36;95660.46;1511739;93;20984;-55
2022/03/11 02:28:54;;;;;;;41.48;22.52;;;;;;;-7.07;58.87;95665.57;1503551;93;21183;-55
2022/03/11 02:31:24;;;;;;;55.95;26.68;;;;;;;-7.06;58.83;95662.33;1537833;91;21684;-56
2022/03/11 02:33:51;;;;;;;60.38;30.05;;;;;;;-7.05;58.64;95665.24;1532950;91;21076;-56
2022/03/11 02:36:18;;;;;;;73.35;34.27;;;;;;;-7.13;58.60;95664.13;1502324;92;21208;-56
2022/03/11 02:38:45;;;;;;;76.67;37.53;;;;;;;-7.22;58.15;95671.91;1499045;92;21631;-55
2022/03/11 02:41:12;;;;;;;80.97;35.00;;;;;;;-7.32;58.13;95666.88;1493152;92;21500;-58
2022/03/11 02:43:42;;;;;;;68.17;33.25;;;;;;;-7.41;58.30;95675.41;1502756;93;21517;-55
2022/03/11 02:46:11;;;;;;;78.40;36.20;;;;;;;-7.48;58.45;95668.42;1499435;93;21556;-54
2022/03/11 02:48:38;;;;;;;83.55;37.28;;;;;;;-7.50;58.41;95671.95;1494512;92;21266;-55
2022/03/11 02:51:06;;;;;;;51.60;26.42;;;;;;;-7.59;58.33;95673.80;1503367;92;21063;-55
2022/03/11 02:53:37;;;;;;;59.90;29.27;;;;;;;-7.67;58.03;95675.34;1534392;91;21058;-54
2022/03/11 02:56:02;;;;;;;40.17;22.22;;;;;;;-7.75;58.31;95677.45;1537295;90;21160;-56
2022/03/11 02:58:30;;;;;;;40.65;21.42;;;;;;;-7.80;58.01;95668.80;1542305;91;21127;-54
2022/03/11 03:01:01;;;;;;;33.73;20.17;;;;;;;-7.88;57.97;95680.25;1509135;92;21949;-56
2022/03/11 03:03:28;;;;;;;38.17;21.00;;;;;;;-7.95;58.15;95679.88;1502010;94;21068;-55
2022/03/11 03:05:55;;;;;;;76.87;35.68;;;;;;;-8.01;58.45;95686.47;1498010;94;22009;-57
2022/03/11 03:08:23;;;;;;;92.62;36.95;;;;;;;-7.99;58.68;95688.27;1545906;89;21524;-53
2022/03/11 03:10:52;;;;;;;65.20;28.12;;;;;;;-8.04;59.20;95700.43;1534277;91;21148;-55
2022/03/11 03:13:19;;;;;;;60.12;28.77;;;;;;;-8.12;59.14;95692.63;1536042;91;21857;-56
2022/03/11 03:15:47;;;;;;;100.78;42.65;;;;;;;-8.26;59.32;95695.17;1535192;91;21137;-60
2022/03/11 03:18:15;;;;;;;106.07;46.15;;;;;;;-8.39;59.40;95701.37;1540476;90;21078;-57
2022/03/11 03:20:43;;;;;;;88.17;42.30;;;;;;;-8.47;59.38;95702.12;1549741;90;21095;-56
2022/03/11 03:23:12;;;;;;;103.55;44.23;;;;;;;-8.57;59.48;95708.48;1534115;91;21096;-58
2022/03/11 03:25:41;;;;;;;113.08;47.43;;;;;;;-8.59;60.09;95707.20;1543725;89;21752;-55
2022/03/11 03:28:09;;;;;;;102.67;44.73;;;;;;;-8.63;59.85;95703.58;1546767;90;21060;-57
2022/03/11 03:30:37;;;;;;;69.65;32.17;;;;;;;-8.66;60.09;95708.19;1542048;90;21073;-56
2022/03/11 03:33:04;;;;;;;80.12;36.03;;;;;;;-8.66;59.88;95710.29;1545504;90;21098;-57
2022/03/11 03:35:31;;;;;;;62.48;32.03;;;;;;;-8.79;60.02;95718.35;1548035;90;21022;-56
2022/03/11 03:37:59;;;;;;;36.00;19.52;;;;;;;-8.85;59.97;95711.55;1542573;90;21877;-56
2022/03/11 03:40:26;;;;;;;39.40;21.07;;;;;;;-8.96;59.70;95723.55;1546252;90;21021;-60
2022/03/11 03:42:54;;;;;;;67.80;29.18;;;;;;;-9.18;59.94;95719.52;1497998;94;21048;-59
2022/03/11 03:45:25;;;;;;;67.90;33.40;;;;;;;-9.32;60.02;95717.41;1495491;94;21188;-55
2022/03/11 03:47:52;;;;;;;72.12;34.83;;;;;;;-9.41;60.33;95724.52;1507377;92;21034;-58
2022/03/11 03:50:19;;;;;;;65.17;32.13;;;;;;;-9.44;60.37;95723.79;1508267;93;21146;-56
2022/03/11 03:52:47;;;;;;;74.67;33.50;;;;;;;-9.48;60.39;95725.47;1498448;92;21117;-56
2022/03/11 03:55:14;;;;;;;71.10;36.70;;;;;;;-9.47;60.63;95727.05;1520452;92;21047;-54
2022/03/11 03:57:43;;;;;;;64.75;32.90;;;;;;;-9.47;60.21;95723.05;1528561;92;21656;-57
2022/03/11 04:00:11;;;;;;;78.40;37.38;;;;;;;-9.48;60.67;95730.80;1501189;93;21168;-57
2022/03/11 04:02:47;;;;;;;72.37;34.35;;;;;;;-9.48;60.19;95725.47;1538075;91;21029;-57
2022/03/11 04:05:15;;;;;;;72.12;35.78;;;;;;;-9.55;60.28;95731.75;1539214;92;21107;-56
2022/03/11 04:07:43;;;;;;;71.47;32.53;;;;;;;-9.58;60.50;95736.31;1532338;91;21134;-57
2022/03/11 04:10:12;;;;;;;50.73;24.70;;;;;;;-9.62;60.24;95731.34;1509878;92;21121;-53
2022/03/11 04:12:40;;;;;;;49.85;23.55;;;;;;;-9.65;60.21;95731.95;1503907;93;21963;-57
2022/03/11 04:15:09;;;;;;;43.17;20.92;;;;;;;-9.70;60.46;95729.39;1494514;94;21667;-54
2022/03/11 04:17:37;;;;;;;52.90;27.70;;;;;;;-9.67;60.55;95738.11;1489829;93;21086;-53
2022/03/11 04:20:05;;;;;;;66.47;30.25;;;;;;;-9.77;60.16;95734.30;1532662;90;21038;-56
2022/03/11 04:22:35;;;;;;;94.20;37.40;;;;;;;-9.87;60.29;95731.85;1538005;89;21037;-55
2022/03/11 04:25:04;;;;;;;65.85;29.85;;;;;;;-9.91;60.45;95738.86;1515645;91;21202;-59
2022/03/11 04:27:31;;;;;;;63.92;28.98;;;;;;;-9.96;60.38;95737.59;1543334;91;21243;-56
2022/03/11 04:29:58;;;;;;;76.20;36.45;;;;;;;-10.00;60.50;95738.50;1535554;90;21109;-55
2022/03/11 04:32:26;;;;;;;67.67;31.70;;;;;;;-9.97;60.53;95740.57;1529802;90;21128;-54
2022/03/11 04:34:53;;;;;;;81.08;36.83;;;;;;;-10.00;60.10;95741.16;1527134;91;21414;-57
2022/03/11 04:37:20;;;;;;;76.67;34.80;;;;;;;-10.15;59.99;95746.78;1541411;90;21796;-53
2022/03/11 04:39:47;;;;;;;75.37;33.10;;;;;;;-10.26;60.23;95746.17;1536944;90;21892;-55
2022/03/11 04:42:15;;;;;;;60.17;30.02;;;;;;;-10.34;60.62;95742.84;1538649;90;21104;-56
2022/03/11 04:44:43;;;;;;;68.28;31.65;;;;;;;-10.42;60.75;95737.41;1537308;90;21030;-56
2022/03/11 04:47:11;;;;;;;61.10;32.03;;;;;;;-10.54;60.78;95746.92;1537054;90;21525;-53
2022/03/11 04:49:38;;;;;;;74.40;32.65;;;;;;;-10.61;60.85;95742.53;1538462;91;21123;-54
2022/03/11 04:52:07;;;;;;;72.97;32.67;;;;;;;-10.73;60.70;95746.17;1540884;91;21119;-54
2022/03/11 04:54:34;;;;;;;78.67;34.65;;;;;;;-10.76;60.86;95753.39;1538032;90;21075;-55
2022/03/11 04:57:02;;;;;;;106.70;44.80;;;;;;;-10.91;61.05;95739.81;1536055;91;21057;-56
2022/03/11 04:59:30;;;;;;;82.50;38.42;;;;;;;-11.09;61.37;95758.40;1540815;91;21582;-55
2022/03/11 05:01:57;;;;;;;119.28;46.85;;;;;;;-11.08;61.53;95757.33;1531650;92;21053;-56
2022/03/11 05:04:24;;;;;;;110.97;46.50;;;;;;;-11.18;61.60;95754.27;1540494;91;21125;-55
2022/03/11 05:06:52;;;;;;;98.25;42.00;;;;;;;-11.21;62.20;95755.41;1534203;91;21054;-56
2022/03/11 05:09:19;;;;;;;96.65;41.45;;;;;;;-11.12;61.96;95762.44;1541257;90;21116;-58
2022/03/11 05:11:46;;;;;;;107.72;47.20;;;;;;;-11.14;61.73;95762.47;1539305;91;21095;-58
2022/03/11 05:14:14;;;;;;;110.90;47.35;;;;;;;-11.20;61.92;95757.75;1536520;91;21142;-57
2022/03/11 05:16:41;;;;;;;94.70;41.25;;;;;;;-11.18;62.60;95761.47;1538439;91;21803;-57
2022/03/11 05:19:08;;;;;;;126.95;53.45;;;;;;;-11.11;61.93;95764.02;1539157;91;21043;-56
2022/03/11 05:21:36;;;;;;;127.35;55.08;;;;;;;-11.07;61.90;95761.55;1539124;91;21059;-58
2022/03/11 05:24:04;;;;;;;100.82;46.45;;;;;;;-11.09;61.79;95763.71;1540297;91;21115;-54
2022/03/11 05:26:32;;;;;;;95.05;42.60;;;;;;;-11.06;61.89;95767.12;1540760;91;21105;-57
2022/03/11 05:28:59;;;;;;;109.63;49.15;;;;;;;-11.03;61.71;95762.55;1534823;90;21183;-57
2022/03/11 05:31:27;;;;;;;105.20;47.00;;;;;;;-11.04;61.62;95769.75;1530129;90;21037;-56
2022/03/11 05:33:55;;;;;;;114.42;51.65;;;;;;;-10.96;61.73;95773.63;1519672;92;21094;-56
2022/03/11 05:36:25;;;;;;;95.25;46.23;;;;;;;-10.97;61.55;95768.84;1537740;91;21061;-59
2022/03/11 05:38:54;;;;;;;92.93;41.23;;;;;;;-10.90;62.14;95779.11;1529599;91;22033;-56
2022/03/11 05:41:21;;;;;;;95.07;40.67;;;;;;;-10.75;61.69;95766.93;1538288;89;21560;-58
2022/03/11 05:43:48;;;;;;;97.60;45.38;;;;;;;-10.76;61.29;95784.73;1535915;90;21556;-56
2022/03/11 05:46:15;;;;;;;114.57;54.80;;;;;;;-10.72;61.29;95778.30;1538638;90;21230;-57
2022/03/11 05:48:45;;;;;;;141.57;63.80;;;;;;;-10.68;61.17;95785.42;1541095;90;21061;-61
2022/03/11 05:51:13;;;;;;;150.68;62.33;;;;;;;-10.57;61.53;95782.87;1547121;91;21145;-57
2022/03/11 05:53:40;;;;;;;121.53;56.68;;;;;;;-10.40;61.03;95775.67;1552483;90;21799;-59
2022/03/11 05:56:07;;;;;;;122.95;56.60;;;;;;;-10.36;60.63;95776.91;1545453;91;20967;-56
2022/03/11 05:58:35;;;;;;;109.40;52.80;;;;;;;-10.27;60.86;95789.80;1551522;90;21022;-65
2022/03/11 06:01:03;;;;;;;88.62;42.48;;;;;;;-10.08;60.20;95782.56;1538859;91;21096;-58
2022/03/11 06:03:31;;;;;;;121.20;53.95;;;;;;;-10.08;59.84;95791.88;1552108;89;21694;-61
2022/03/11 06:05:58;;;;;;;76.53;37.28;;;;;;;-10.08;60.01;95791.88;1537456;90;21252;-58
2022/03/11 06:08:25;;;;;;;114.40;50.90;;;;;;;-10.01;59.67;95794.90;1547733;89;21193;-63
2022/03/11 06:10:53;;;;;;;126.55;56.83;;;;;;;-9.91;59.64;95793.41;1541049;89;21310;-59
2022/03/11 06:13:20;;;;;;;81.67;39.85;;;;;;;-9.81;59.49;95788.44;1540862;91;21254;-60
2022/03/11 06:15:48;;;;;;;220.37;89.35;;;;;;;-9.71;59.20;95790.89;1551332;90;21136;-60
2022/03/11 06:18:18;;;;;;;161.97;71.82;;;;;;;-9.72;59.26;95792.78;1544707;89;21371;-59
2022/03/11 06:20:45;;;;;;;94.58;44.60;;;;;;;-9.64;59.31;95789.42;1538543;90;21842;-57
2022/03/11 06:23:13;;;;;;;105.83;46.80;;;;;;;-9.53;59.04;95796.14;1543196;89;21700;-57
2022/03/11 06:25:42;;;;;;;103.17;47.75;;;;;;;-9.49;58.79;95787.00;1545810;89;21044;-60
2022/03/11 06:28:09;;;;;;;96.72;45.43;;;;;;;-9.48;58.91;95796.03;1540342;90;21160;-59
2022/03/11 06:30:36;;;;;;;79.07;38.20;;;;;;;-9.34;58.94;95796.02;1544719;89;21130;-55
2022/03/11 06:33:04;;;;;;;90.45;44.40;;;;;;;-9.21;58.46;95800.56;1546676;91;21124;-60
2022/03/11 06:35:31;;;;;;;95.65;45.35;;;;;;;-9.19;58.54;95795.72;1536352;91;21145;-60
2022/03/11 06:37:58;;;;;;;98.45;45.23;;;;;;;-9.08;58.58;95795.20;1535841;90;21134;-57
2022/03/11 06:40:25;;;;;;;101.60;49.93;;;;;;;-8.96;58.32;95803.48;1544180;89;21657;-60
2022/03/11 06:42:53;;;;;;;99.60;44.77;;;;;;;-8.83;58.13;95789.89;1550429;90;21280;-61
2022/03/11 06:45:20;;;;;;;110.90;51.08;;;;;;;-8.65;58.02;95795.08;1511117;92;21126;-59
2022/03/11 06:47:47;;;;;;;125.47;60.83;;;;;;;-8.53;57.71;95785.98;1524315;91;21126;-61
2022/03/11 06:50:16;;;;;;;127.17;56.90;;;;;;;-8.43;57.54;95792.43;1520885;92;21060;-60
2022/03/11 06:52:44;;;;;;;134.52;61.28;;;;;;;-8.33;57.35;95788.17;1523304;91;21220;-63
2022/03/11 06:55:13;;;;;;;114.20;54.65;;;;;;;-8.19;57.13;95787.56;1507455;93;21260;-61
2022/03/11 06:57:40;;;;;;;169.45;79.85;;;;;;;-7.99;57.10;95791.04;1496985;92;21930;-62
2022/03/11 07:00:09;;;;;;;190.50;83.58;;;;;;;-7.89;56.38;95788.90;1480488;93;21481;-58
2022/03/11 07:02:37;;;;;;;202.70;84.55;;;;;;;-7.70;56.18;95788.70;1518795;91;21144;-58
2022/03/11 07:05:05;;;;;;;178.35;81.12;;;;;;;-7.49;55.71;95784.39;1503043;93;21113;-62
2022/03/11 07:07:33;;;;;;;158.27;73.85;;;;;;;-7.37;55.52;95787.27;1517283;92;22499;-61
2022/03/11 07:10:07;;;;;;;135.22;63.52;;;;;;;-7.15;55.24;95787.18;1498922;93;21152;-59
2022/03/11 07:12:34;;;;;;;164.47;74.35;;;;;;;-6.87;54.32;95778.59;1502744;93;21075;-59
2022/03/11 07:15:06;;;;;;;156.07;66.55;;;;;;;-6.73;53.87;95777.34;1500357;93;21065;-62
2022/03/11 07:17:34;;;;;;;187.32;80.87;;;;;;;-6.60;53.51;95776.42;1531301;90;21119;-59
2022/03/11 07:20:06;;;;;;;160.82;73.40;;;;;;;-6.51;53.42;95774.52;1532799;92;21598;-57
2022/03/11 07:22:34;;;;;;;173.15;80.95;;;;;;;-6.39;52.98;95776.56;1533671;91;21094;-59
2022/03/11 07:25:02;;;;;;;144.62;68.25;;;;;;;-6.19;53.01;95774.05;1508771;92;21048;-62
2022/03/11 07:27:30;;;;;;;153.10;74.42;;;;;;;-5.73;53.00;95770.08;1506469;92;21068;-56
2022/03/11 07:29:58;;;;;;;144.30;69.07;;;;;;;-5.28;51.48;95775.19;1535687;92;21443;-57
2022/03/11 07:32:26;;;;;;;139.18;69.97;;;;;;;-4.89;50.69;95764.09;1528389;91;21177;-59
2022/03/11 07:34:54;;;;;;;122.70;61.28;;;;;;;-4.75;50.28;95765.98;1532288;91;21149;-60
2022/03/11 07:37:21;;;;;;;92.15;47.13;;;;;;;-4.66;50.17;95764.02;1538516;91;21492;-62
2022/03/11 07:39:49;;;;;;;86.15;41.58;;;;;;;-4.44;50.06;95763.72;1537485;91;21018;-58
2022/03/11 07:42:16;;;;;;;101.35;49.30;;;;;;;-4.17;48.98;95769.34;1541886;91;21053;-59
2022/03/11 07:44:44;;;;;;;103.65;49.03;;;;;;;-4.01;48.60;95770.85;1530480;91;21072;-59
2022/03/11 07:47:11;;;;;;;71.70;36.70;;;;;;;-3.91;48.11;95767.77;1543407;90;21102;-60
2022/03/11 07:49:38;;;;;;;57.17;29.77;;;;;;;-3.78;47.86;95762.64;1546451;90;21051;-58
2022/03/11 07:52:06;;;;;;;64.53;32.80;;;;;;;-3.68;47.34;95759.55;1535203;90;22055;-56
2022/03/11 07:54:34;;;;;;;40.75;24.10;;;;;;;-3.61;47.04;95767.84;1532347;89;21116;-59
2022/03/11 07:57:02;;;;;;;26.90;17.07;;;;;;;-3.36;45.49;95766.21;1528509;92;21137;-58
2022/03/11 07:59:31;;;;;;;26.93;14.65;;;;;;;-3.28;44.45;95762.08;1544615;89;21113;-56
2022/03/11 08:02:00;;;;;;;29.25;16.00;;;;;;;-3.30;44.20;95761.63;1556931;90;21106;-57
2022/03/11 08:04:32;;;;;;;26.15;16.75;;;;;;;-3.24;44.28;95756.25;1551808;89;21538;-61
2022/03/11 08:07:06;;;;;;;33.55;19.65;;;;;;;-2.95;44.14;95758.73;1552716;90;20954;-57
2022/03/11 08:09:31;;;;;;;45.63;21.52;;;;;;;-2.77;42.62;95756.03;1544502;90;21164;-57
2022/03/11 08:12:00;;;;;;;28.73;17.67;;;;;;;-2.64;43.26;95750.86;1543007;90;21123;-58
2022/03/11 08:14:27;;;;;;;25.08;14.73;;;;;;;-2.38;42.14;95745.06;1554404;89;21162;-58
2022/03/11 08:16:58;;;;;;;23.90;14.45;;;;;;;-2.36;41.74;95748.99;1553701;90;21555;-57
2022/03/11 08:19:25;;;;;;;21.45;14.83;;;;;;;-2.24;42.79;95742.23;1563300;90;21632;-57
2022/03/11 08:21:52;;;;;;;16.70;12.53;;;;;;;-1.97;40.77;95746.07;1557060;89;21197;-58
2022/03/11 08:24:20;;;;;;;12.85;11.28;;;;;;;-1.83;39.31;95731.61;1547612;90;21448;-62
2022/03/11 08:26:48;;;;;;;16.60;10.20;;;;;;;-1.70;39.07;95737.97;1542241;90;21150;-56
2022/03/11 08:29:17;;;;;;;11.88;8.35;;;;;;;-1.63;39.61;95741.64;1539949;91;21123;-55
2022/03/11 08:31:44;;;;;;;14.40;9.18;;;;;;;-1.45;38.80;95732.09;1558210;89;21041;-58
2022/03/11 08:34:12;;;;;;;10.08;7.85;;;;;;;-1.39;35.97;95736.09;1571357;90;21979;-57
2022/03/11 08:36:40;;;;;;;24.35;14.75;;;;;;;-1.49;37.95;95743.33;1562995;90;21114;-58
2022/03/11 08:39:07;;;;;;;12.15;9.83;;;;;;;-1.52;37.39;95737.87;1512208;93;21018;-59
2022/03/11 08:41:35;;;;;;;13.72;10.50;;;;;;;-1.44;37.88;95746.34;1552262;91;21142;-57
2022/03/11 08:44:03;;;;;;;8.75;7.50;;;;;;;-1.27;38.06;95741.41;1545683;90;21102;-61
2022/03/11 08:46:32;;;;;;;7.00;6.28;;;;;;;-1.04;36.74;95742.37;1523631;92;21041;-58
2022/03/11 08:48:59;;;;;;;8.08;7.28;;;;;;;-0.91;37.29;95741.70;1512124;92;21087;-59
2022/03/11 08:51:29;;;;;;;7.58;6.67;;;;;;;-0.74;36.40;95744.03;1512106;92;21075;-60
2022/03/11 08:53:57;;;;;;;11.68;8.80;;;;;;;-0.70;35.92;95737.58;1550079;90;21474;-57
2022/03/11 08:56:25;;;;;;;10.03;8.20;;;;;;;-0.71;34.83;95741.42;1544588;89;21017;-59
2022/03/11 08:58:55;;;;;;;8.80;7.78;;;;;;;-0.93;34.84;95737.98;1536776;92;21990;-60
2022/03/11 09:01:23;;;;;;;14.35;8.35;;;;;;;-1.22;35.54;95741.70;1531664;91;21071;-57
2022/03/11 09:03:52;;;;;;;12.05;8.75;;;;;;;-1.21;35.81;95733.82;1508047;91;21080;-64
2022/03/11 09:06:20;;;;;;;10.95;8.78;;;;;;;-1.04;35.33;95734.81;1503333;92;21184;-59
2022/03/11 09:08:47;;;;;;;10.43;8.15;;;;;;;-0.91;34.85;95733.59;1506398;93;21164;-57
2022/03/11 09:11:14;;;;;;;25.75;18.05;;;;;;;-0.73;35.16;95730.74;1483626;93;21961;-57
2022/03/11 09:13:43;;;;;;;13.00;9.53;;;;;;;-0.58;34.89;95735.34;1507615;92;21055;-56
2022/03/11 09:16:12;;;;;;;13.25;10.20;;;;;;;-0.53;34.75;95735.05;1504842;93;21191;-55
2022/03/11 09:18:41;;;;;;;9.58;7.15;;;;;;;-0.32;34.90;95731.45;1496762;92;21161;-57
2022/03/11 09:21:08;;;;;;;10.43;7.17;;;;;;;-0.02;35.03;95731.13;1513713;92;22084;-57
2022/03/11 09:23:35;;;;;;;11.93;9.30;;;;;;;0.23;32.82;95736.67;1505437;92;21209;-57
2022/03/11 09:26:02;;;;;;;14.45;8.53;;;;;;;0.23;33.76;95732.61;1486908;93;21100;-58
2022/03/11 09:28:31;;;;;;;20.17;13.05;;;;;;;0.16;32.15;95731.13;1480292;94;21039;-59
2022/03/11 09:30:58;;;;;;;14.58;10.80;;;;;;;0.18;32.27;95736.97;1542203;91;21130;-58
2022/03/11 09:33:25;;;;;;;14.30;9.90;;;;;;;0.07;31.46;95731.91;1538430;90;21247;-62
2022/03/11 09:35:53;;;;;;;9.35;8.43;;;;;;;-0.09;31.57;95734.47;1540707;91;21140;-60
2022/03/11 09:38:22;;;;;;;16.73;13.30;;;;;;;-0.05;32.41;95738.03;1528692;91;21118;-61
2022/03/11 09:40:51;;;;;;;26.33;15.60;;;;;;;0.10;31.98;95740.68;1523891;91;21156;-61
2022/03/11 09:43:19;;;;;;;19.77;13.40;;;;;;;0.13;32.03;95726.44;1534701;91;21461;-60
2022/03/11 09:45:46;;;;;;;12.50;10.25;;;;;;;0.46;33.26;95748.34;1526236;90;21043;-61
2022/03/11 09:48:16;;;;;;;23.18;12.85;;;;;;;0.91;31.34;95745.66;1536393;91;21088;-59
2022/03/11 09:50:43;;;;;;;13.70;9.50;;;;;;;1.28;30.51;95745.31;1544980;91;21469;-58
2022/03/11 09:53:12;;;;;;;12.33;9.20;;;;;;;1.56;30.68;95745.75;1545954;90;21521;-59
2022/03/11 09:55:39;;;;;;;11.60;9.88;;;;;;;2.01;30.29;95744.23;1549122;90;21011;-58
2022/03/11 09:58:07;;;;;;;16.27;9.85;;;;;;;2.41;29.47;95734.83;1546430;90;21097;-60
2022/03/11 10:00:35;;;;;;;17.25;11.50;;;;;;;2.79;29.40;95738.53;1551486;90;21193;-57
2022/03/11 10:03:02;;;;;;;13.62;9.03;;;;;;;3.02;27.92;95735.09;1546324;90;21149;-58
2022/03/11 10:05:52;;;;;;;9.78;7.95;;;;;;;3.32;28.59;95734.36;1551889;90;22205;-57
2022/03/11 10:08:34;;;;;;;10.05;7.65;;;;;;;3.61;28.25;95728.18;1555210;89;21180;-57
2022/03/11 10:11:26;;;;;;;9.03;6.62;;;;;;;4.03;27.64;95739.91;1541383;90;21616;-57
2022/03/11 10:14:04;;;;;;;11.33;7.67;;;;;;;4.63;27.92;95737.61;1545837;91;21560;-58
2022/03/11 10:16:34;;;;;;;14.10;7.35;;;;;;;5.12;27.55;95737.73;1532975;91;21165;-59
2022/03/11 10:19:08;;;;;;;10.98;7.35;;;;;;;5.38;26.49;95731.91;1554577;90;21097;-59
2022/03/11 10:21:39;;;;;;;11.97;8.35;;;;;;;5.63;26.10;95732.67;1547019;90;21031;-57
2022/03/11 10:24:12;;;;;;;12.47;9.13;;;;;;;5.87;26.33;95726.42;1547152;89;21604;-57
2022/03/11 10:26:40;;;;;;;;;;;;;;;6.07;26.16;95725.61;1558169;91;21247;-57
2022/03/11 10:29:18;;;;;;;18.02;12.30;;;;;;;6.23;24.84;95727.33;1506845;92;20259;-59
2022/03/11 10:31:49;;;;;;;13.60;7.85;;;;;;;6.39;25.32;95721.41;1547069;90;21410;-57
2022/03/11 10:34:32;;;;;;;9.55;5.97;;;;;;;6.64;26.28;95714.66;1545134;90;21123;-58
2022/03/11 10:37:07;;;;;;;11.45;8.18;;;;;;;7.03;25.42;95721.29;1543983;91;21099;-60
2022/03/11 10:39:41;;;;;;;10.48;7.03;;;;;;;7.29;25.16;95712.69;1529737;91;21676;-56
2022/03/11 10:42:24;;;;;;;12.78;9.63;;;;;;;7.44;23.59;95711.98;1509123;93;21131;-59
2022/03/11 10:45:05;;;;;;;11.73;7.53;;;;;;;7.79;24.46;95709.73;1513005;92;21110;-56
2022/03/11 10:47:36;;;;;;;13.30;6.65;;;;;;;7.67;24.28;95711.59;1534380;91;21476;-58
2022/03/11 10:50:12;;;;;;;11.95;6.55;;;;;;;7.60;23.95;95701.28;1547172;91;21163;-59
2022/03/11 10:52:43;;;;;;;10.20;6.95;;;;;;;7.60;23.84;95710.30;1541654;91;21173;-59
2022/03/11 10:55:33;;;;;;;7.70;5.97;;;;;;;8.09;24.00;95707.67;1551194;90;21057;-56
2022/03/11 10:57:59;;;;;;;9.88;5.67;;;;;;;8.65;23.81;95703.69;1530774;92;21013;-59
2022/03/11 11:00:28;;;;;;;11.40;6.85;;;;;;;8.83;22.52;95706.98;1517162;92;21119;-58
2022/03/11 11:03:01;;;;;;;9.40;5.78;;;;;;;8.68;23.15;95697.41;1511812;92;22074;-56
2022/03/11 11:05:29;;;;;;;12.33;7.65;;;;;;;9.03;22.80;95698.30;1513619;92;21189;-60
2022/03/11 11:07:57;;;;;;;9.90;6.12;;;;;;;9.46;23.13;95693.72;1550455;90;21417;-57
2022/03/11 11:10:27;;;;;;;10.08;6.55;;;;;;;9.72;21.83;95687.38;1545174;90;21113;-56
2022/03/11 11:12:54;;;;;;;9.15;6.75;;;;;;;9.76;21.98;95699.11;1553843;90;21646;-56
2022/03/11 11:15:22;;;;;;;9.38;6.80;;;;;;;9.83;21.96;95686.61;1530732;90;21165;-57
2022/03/11 11:17:50;;;;;;;8.80;6.50;;;;;;;10.00;21.28;95688.27;1528182;91;21287;-57
2022/03/11 11:20:48;;;;;;;11.20;5.60;;;;;;;10.28;21.88;95683.05;1531852;92;21481;-57
2022/03/11 11:23:16;;;;;;;7.42;5.20;;;;;;;10.54;21.84;95670.36;1556213;91;21139;-57
2022/03/11 11:25:44;;;;;;;9.28;5.30;;;;;;;10.97;21.54;95683.56;1565249;90;21009;-57